RIPO2: Cimarron River Near Ripley, OK

                                SHEF ID:       RIPO2     Cimarron River near Ripley, OK
STATION TYPE:
Regulating: Stage = 20.00, Flow = 33370

PRECIP ELEVATION STAGE RIV-FLOW AIR-TEMP WIND-DIRWIND-SPEED REL-HUMID VOLTAGE BAT-LOAD
in ft ft cfs F deg mph % volt volt
Ccp-Rev Ccp-Rev Ccp-Rev Ccp-Rev Ccp-Rev Ccp-Rev Ccp-Rev Ccp-Rev Ccp-Rev Ccp-Rev
(America/Chicago)
03/15 00:00 0.00 ---- 7.44 378 157.46 ---- ---- ---- ---- 12.68
03/15 01:00 0.00 ---- 7.43 374 158.18 ---- ---- ---- ---- 12.63
03/15 02:00 0.00 ---- 7.42 370 157.28 ---- ---- ---- ---- 12.59
03/15 03:00 0.00 ---- 7.41 365 156.92 ---- ---- ---- ---- 12.58
03/15 04:00 0.00 ---- 7.42 370 157.10 ---- ---- ---- ---- 12.56
03/15 05:00 0.00 ---- 7.41 365 156.02 ---- ---- ---- ---- 12.54
03/15 06:00 0.00 ---- 7.47 391 155.30 ---- ---- ---- ---- 12.53
03/15 07:00 0.00 ---- 7.51 409 154.40 ---- ---- ---- ---- 12.51
03/15 08:00 0.00 ---- 7.51 409 152.42 ---- ---- ---- ---- 12.50
03/15 09:00 0.00 ---- 7.45 382 154.40 ---- ---- ---- ---- 12.47
03/15 10:00 0.00 ---- 7.46 387 150.98 ---- ---- ---- ---- 13.03
03/15 11:00 0.00 ---- 7.47 391 134.24 ---- ---- ---- ---- 13.54
03/15 12:00 0.00 ---- 7.49 400 129.56 ---- ---- ---- ---- 13.52
03/15 13:00 0.00 ---- 7.49 400 128.66 ---- ---- ---- ---- 13.46
03/15 14:00 0.00 ---- 7.47 391 121.64 ---- ---- ---- ---- 13.46
03/15 15:00 0.00 ---- 7.47 391 115.16 ---- ---- ---- ---- 13.50
03/15 16:00 0.00 ---- 7.47 391 111.74 ---- ---- ---- ---- 13.51
03/15 17:00 0.00 ---- 7.47 391 115.34 ---- ---- ---- ---- 13.59
03/15 18:00 0.00 ---- 7.46 387 114.44 ---- ---- ---- ---- 13.57
03/15 19:00 0.00 ---- 7.47 391 108.86 ---- ---- ---- ---- 13.55
03/15 20:00 0.00 ---- 7.46 387 103.82 ---- ---- ---- ---- 13.55
03/15 21:00 0.00 ---- 7.46 387 98.24 ---- ---- ---- ---- 13.31
03/15 22:00 0.00 ---- 7.48 395 95.72 ---- ---- ---- ---- 13.13
03/15 23:00 0.00 ---- 7.45 382 94.82 ---- ---- ---- ---- 12.98
Data processed at Mon 16Mar2026 04:02 GMT

NOTICE: If you are parsing this page

Please convert to using our Data API. Starting early 2026 we will be migrating to: https://water.usace.army.mil with modern pages rendered in JavaScript. When this migration completes you will no longer be able to scrape this page! CWMSDataAPI (CDA)

Timeseries IDs (TSIDs)

TSIDs used from left to right in the data table
RIPL.Precip-Inc.Total.1Hour.1Hour.Ccp-Rev
RIPL.Stage.Inst.1Hour.0.Ccp-Rev
RIPL.Flow.Inst.1Hour.0.Ccp-Rev
RIPL.Temp-Air.Inst.1Hour.0.Ccp-Rev
RIPL.Dir-Wind.Inst.1Hour.0.Ccp-Rev
RIPL.Speed-Wind.Inst.1Hour.0.Ccp-Rev
RIPL.%-Humidity.Inst.1Hour.0.Ccp-Rev
RIPL.Volt-Battery.Inst.1Hour.0.Ccp-Rev
RIPL.Volt-Battery Load.Inst.1Hour.0.Ccp-Rev

                            

All information presented herein is the property of the government of the United States of America and may be revised or deleted at any time without prior notice. Dissemination of this information without the expressed written consent of the Public Affairs Office, Tulsa District U.S. Army Corps of Engineers is strictly prohibited. These data are gathered electronically and, as presented, have NOT undergone any form of quality control. These data are NOT guaranteed to be valid or correct.